createdAt,value
2022-10-22T00:02:02.012Z,99.90
2022-10-22T00:07:03.811Z,99.90
2022-10-22T00:12:05.892Z,99.90
2022-10-22T00:17:11.187Z,99.90
2022-10-22T00:22:13.447Z,99.90
2022-10-22T00:27:15.307Z,99.90
2022-10-22T00:32:17.104Z,99.90
2022-10-22T00:37:18.864Z,99.90
2022-10-22T00:42:24.663Z,99.90
2022-10-22T00:47:30.724Z,99.90
2022-10-22T00:52:33.969Z,99.90
2022-10-22T00:57:36.619Z,99.90
2022-10-22T01:02:38.795Z,99.90
2022-10-22T01:07:48.198Z,99.90
2022-10-22T01:13:37.978Z,99.90
2022-10-22T01:18:55.288Z,99.90
2022-10-22T01:24:13.784Z,99.90
2022-10-22T01:29:34.989Z,99.90
2022-10-22T01:34:39.356Z,99.90
2022-10-22T01:39:43.854Z,99.90
2022-10-22T01:44:46.601Z,99.90
2022-10-22T01:50:25.745Z,99.90
2022-10-22T01:55:42.093Z,99.90
2022-10-22T02:00:54.790Z,99.90
2022-10-22T02:06:04.727Z,99.90
2022-10-22T02:11:07.205Z,99.90
2022-10-22T02:16:13.700Z,99.90
2022-10-22T02:21:16.521Z,99.90
2022-10-22T02:26:32.687Z,99.90
2022-10-22T02:31:38.352Z,99.90
2022-10-22T02:36:45.439Z,99.90
2022-10-22T02:41:49.906Z,99.90
2022-10-22T02:46:52.008Z,99.90
2022-10-22T02:51:53.819Z,99.90
2022-10-22T02:56:55.693Z,99.90
2022-10-22T03:01:57.453Z,99.90
2022-10-22T03:06:59.224Z,99.90
2022-10-22T03:12:00.964Z,99.90
2022-10-22T03:17:02.770Z,99.90
2022-10-22T03:22:11.496Z,99.90
2022-10-22T03:27:14.992Z,99.90
2022-10-22T03:32:16.724Z,99.90
2022-10-22T03:37:18.595Z,99.90
2022-10-22T03:42:21.808Z,99.90
2022-10-22T03:47:26.592Z,99.90
2022-10-22T03:52:28.536Z,99.90
2022-10-22T03:57:30.324Z,99.90
2022-10-22T04:02:32.105Z,99.90
2022-10-22T04:07:33.923Z,99.90
2022-10-22T04:12:35.675Z,99.90
2022-10-22T04:17:37.975Z,99.90
2022-10-22T04:22:40.052Z,99.90
2022-10-22T04:27:41.939Z,99.90
2022-10-22T04:32:43.907Z,99.90
2022-10-22T04:37:45.639Z,99.90
2022-10-22T04:42:47.408Z,99.90
2022-10-22T04:47:49.170Z,99.90
2022-10-22T04:52:50.894Z,99.90
2022-10-22T04:57:52.769Z,99.90
2022-10-22T05:02:54.515Z,99.90
2022-10-22T05:07:56.233Z,99.90
2022-10-22T05:12:57.964Z,99.90
2022-10-22T05:17:59.745Z,99.90
2022-10-22T05:23:01.443Z,99.90
2022-10-22T05:28:03.289Z,99.90
2022-10-22T05:33:05.038Z,99.90
2022-10-22T05:38:06.846Z,99.90
2022-10-22T05:43:08.584Z,99.90
2022-10-22T05:48:10.451Z,99.90
2022-10-22T05:53:12.370Z,99.90
2022-10-22T05:58:14.515Z,99.90
2022-10-22T06:03:16.352Z,99.90
2022-10-22T06:08:19.140Z,99.90
2022-10-22T06:13:21.223Z,99.90
2022-10-22T06:18:22.995Z,99.90
2022-10-22T06:23:24.747Z,99.90
2022-10-22T06:28:27.023Z,99.90
2022-10-22T06:33:31.219Z,99.90
2022-10-22T06:38:33.003Z,99.90
2022-10-22T06:43:34.903Z,99.90
2022-10-22T06:48:38.059Z,99.90
2022-10-22T06:53:41.066Z,93.90
2022-10-22T06:58:42.930Z,91.90
2022-10-22T07:03:44.766Z,85.20
2022-10-22T07:08:46.841Z,80.00
2022-10-22T07:13:49.611Z,74.60
2022-10-22T07:18:51.578Z,71.20
2022-10-22T07:23:53.543Z,68.20
2022-10-22T07:28:55.306Z,66.80
2022-10-22T07:33:57.681Z,62.00
2022-10-22T07:39:00.551Z,59.00
2022-10-22T07:44:02.311Z,60.70
2022-10-22T07:49:04.066Z,59.60
2022-10-22T07:54:06.125Z,58.70
2022-10-22T07:59:07.901Z,56.80
2022-10-22T08:04:09.982Z,55.60
2022-10-22T08:09:11.767Z,53.90
2022-10-22T08:14:13.584Z,53.60
2022-10-22T08:19:18.868Z,53.20
2022-10-22T08:24:20.601Z,51.90
2022-10-22T08:29:23.472Z,54.70
2022-10-22T08:34:25.244Z,56.00
2022-10-22T08:39:27.122Z,54.50
2022-10-22T08:44:48.988Z,53.30
2022-10-22T08:49:53.375Z,55.60
2022-10-22T08:54:58.738Z,55.40
2022-10-22T09:00:05.871Z,57.60
2022-10-22T09:05:56.108Z,54.90
2022-10-22T09:11:15.917Z,55.60
2022-10-22T09:16:21.461Z,56.40
2022-10-22T09:21:41.570Z,57.70
2022-10-22T09:26:43.504Z,61.30
2022-10-22T09:31:45.260Z,60.00
2022-10-22T09:36:47.189Z,61.00
2022-10-22T09:41:49.663Z,59.40
2022-10-22T09:46:51.668Z,63.60
2022-10-22T09:51:59.260Z,56.70
2022-10-22T09:57:22.109Z,61.50
2022-10-22T10:02:43.695Z,69.10
2022-10-22T10:07:48.089Z,74.50
2022-10-22T10:12:59.955Z,87.10
2022-10-22T10:18:32.192Z,94.50
2022-10-22T10:24:18.447Z,97.90
2022-10-22T10:29:30.557Z,99.70
2022-10-22T10:34:46.083Z,99.90
2022-10-22T10:39:53.643Z,99.90
2022-10-22T10:44:55.473Z,99.90
2022-10-22T10:50:16.875Z,99.90
2022-10-22T10:55:25.235Z,99.90
2022-10-22T11:00:30.733Z,99.90
2022-10-22T11:05:55.812Z,99.90
2022-10-22T11:11:22.264Z,99.90
2022-10-22T11:16:36.842Z,99.90
2022-10-22T11:21:50.039Z,99.90
2022-10-22T11:27:16.093Z,99.90
2022-10-22T11:32:20.865Z,99.90
2022-10-22T11:37:26.441Z,99.90
2022-10-22T11:42:36.082Z,99.90
2022-10-22T11:47:57.373Z,99.90
2022-10-22T11:53:27.306Z,99.90
2022-10-22T11:58:29.172Z,99.90
2022-10-22T12:03:34.635Z,99.90
2022-10-22T12:08:43.956Z,99.90
2022-10-22T12:14:02.700Z,98.50
2022-10-22T12:19:12.006Z,99.40
2022-10-22T12:24:16.951Z,99.50
2022-10-22T12:29:22.675Z,99.60
2022-10-22T12:34:25.476Z,99.90
2022-10-22T12:39:27.811Z,99.90
2022-10-22T12:44:29.529Z,99.90
2022-10-22T12:49:41.790Z,99.90
2022-10-22T12:54:46.363Z,99.90
2022-10-22T12:59:51.279Z,99.90
2022-10-22T13:05:27.317Z,99.90
2022-10-22T13:10:38.708Z,99.90
2022-10-22T13:15:40.503Z,99.90
2022-10-22T13:20:54.105Z,99.90
2022-10-22T13:26:09.171Z,99.90
2022-10-22T13:31:19.157Z,99.90
2022-10-22T13:36:21.215Z,99.90
2022-10-22T13:41:31.052Z,99.90
2022-10-22T13:46:33.047Z,99.90
2022-10-22T13:51:35.632Z,99.90
2022-10-22T13:56:37.505Z,99.90
2022-10-22T14:01:39.690Z,99.90
2022-10-22T14:06:41.548Z,99.90
2022-10-22T14:11:43.398Z,99.90
2022-10-22T14:16:45.360Z,99.90
2022-10-22T14:21:49.067Z,99.90
2022-10-22T14:26:50.836Z,99.90
2022-10-22T14:31:52.623Z,99.90
2022-10-22T14:36:54.340Z,99.90
2022-10-22T14:41:56.120Z,99.90
2022-10-22T14:46:57.929Z,99.90
2022-10-22T14:51:59.788Z,99.90
2022-10-22T14:57:05.167Z,99.90
2022-10-22T15:02:08.747Z,99.90
2022-10-22T15:07:10.492Z,99.90
2022-10-22T15:12:12.372Z,99.90
2022-10-22T15:17:15.183Z,99.90
2022-10-22T15:22:17.524Z,99.90
2022-10-22T15:27:19.587Z,99.90
2022-10-22T15:32:21.323Z,99.90
2022-10-22T15:37:23.330Z,99.90
2022-10-22T15:42:25.085Z,99.90
2022-10-22T15:47:29.582Z,99.90
2022-10-22T15:52:32.327Z,99.90
2022-10-22T15:57:34.062Z,99.90
2022-10-22T16:02:35.899Z,99.90
2022-10-22T16:07:37.820Z,99.90
2022-10-22T16:12:41.514Z,99.90
2022-10-22T16:17:43.671Z,99.90
2022-10-22T16:22:48.968Z,99.90
2022-10-22T16:27:51.956Z,99.90
2022-10-22T16:32:53.740Z,99.90
2022-10-22T16:37:55.640Z,99.90
2022-10-22T16:42:57.412Z,99.90
2022-10-22T16:47:59.159Z,99.90
2022-10-22T16:53:00.968Z,99.90
2022-10-22T16:58:03.072Z,99.90
2022-10-22T17:03:04.817Z,99.90
2022-10-22T17:08:06.608Z,99.90
2022-10-22T17:13:08.346Z,99.90
2022-10-22T17:18:10.343Z,99.90
2022-10-22T17:23:12.066Z,99.90
2022-10-22T17:28:13.984Z,99.90
2022-10-22T17:33:15.719Z,99.90
2022-10-22T17:38:17.436Z,99.90
2022-10-22T17:43:19.198Z,99.90
2022-10-22T17:48:20.928Z,99.90
2022-10-22T17:53:22.643Z,99.90
2022-10-22T17:58:24.396Z,99.90
2022-10-22T18:03:27.889Z,99.90
2022-10-22T18:08:29.676Z,99.90
2022-10-22T18:13:32.502Z,99.90
2022-10-22T18:18:35.745Z,99.90
2022-10-22T18:23:37.600Z,99.90
2022-10-22T18:28:39.392Z,99.90
2022-10-22T18:33:41.444Z,99.90
2022-10-22T18:38:43.206Z,99.90
2022-10-22T18:43:45.130Z,99.90
2022-10-22T18:48:47.140Z,99.90
2022-10-22T18:54:05.327Z,99.90
2022-10-22T18:59:23.481Z,99.90
2022-10-22T19:04:30.949Z,99.90
2022-10-22T19:09:32.747Z,99.90
2022-10-22T19:14:35.278Z,99.90
2022-10-22T19:19:37.110Z,99.90
2022-10-22T19:24:39.298Z,99.90
2022-10-22T19:29:41.002Z,99.90
2022-10-22T19:34:43.112Z,99.90
2022-10-22T19:39:44.875Z,99.90
2022-10-22T19:44:46.611Z,99.90
2022-10-22T19:49:48.359Z,99.90
2022-10-22T19:54:50.162Z,99.90
2022-10-22T19:59:51.923Z,99.90
2022-10-22T20:04:53.699Z,99.90
2022-10-22T20:09:55.543Z,99.90
2022-10-22T20:14:57.367Z,99.90
2022-10-22T20:19:59.494Z,99.90
2022-10-22T20:25:01.231Z,99.90
2022-10-22T20:30:04.121Z,99.90
2022-10-22T20:35:07.251Z,99.90
2022-10-22T20:40:09.444Z,99.90
2022-10-22T20:45:11.182Z,99.90
2022-10-22T20:50:13.780Z,99.90
2022-10-22T21:00:18.360Z,99.90
2022-10-22T21:05:20.075Z,99.90
2022-10-22T21:10:21.831Z,99.90
2022-10-22T21:15:23.605Z,99.90
2022-10-22T21:20:25.376Z,99.90
2022-10-22T21:25:27.132Z,99.90
2022-10-22T21:30:28.863Z,99.90
2022-10-22T21:35:32.421Z,99.90
2022-10-22T21:40:36.723Z,99.90
2022-10-22T21:45:38.784Z,99.90
2022-10-22T21:50:44.590Z,99.90
2022-10-22T21:55:46.283Z,99.90
2022-10-22T22:00:54.019Z,99.90
2022-10-22T22:06:05.089Z,99.90
2022-10-22T22:11:18.833Z,99.90
2022-10-22T22:16:27.159Z,99.90
2022-10-22T22:21:30.882Z,99.90
2022-10-22T22:26:33.201Z,99.90
2022-10-22T22:31:37.347Z,99.90
2022-10-22T22:36:42.132Z,99.90
2022-10-22T22:41:44.343Z,99.90
2022-10-22T22:46:46.102Z,99.90
2022-10-22T22:51:49.587Z,99.90
2022-10-22T22:56:51.543Z,99.90
2022-10-22T23:01:53.294Z,99.90
2022-10-22T23:06:55.103Z,99.90
2022-10-22T23:11:57.129Z,99.90
2022-10-22T23:16:58.860Z,99.90
2022-10-22T23:22:02.139Z,99.90
2022-10-22T23:27:04.324Z,99.90
2022-10-22T23:32:11.880Z,99.90
2022-10-22T23:37:13.762Z,99.90
2022-10-22T23:42:15.510Z,99.90
2022-10-22T23:47:17.260Z,99.90
2022-10-22T23:52:19.008Z,99.90
2022-10-22T23:57:20.820Z,99.90
